This is the latest recevied weather packets stored in our database for station/object WX5RP. If no packets are shown the sender has not sent any weather packets the latest 1 day(s).
| Time | Temp. | Humidity | Pressure | Rain* | Wind** | Luminosity | Snow |
|---|---|---|---|---|---|---|---|
| 1836274694 | 16.67° C | - | - | 0 mm | 1.79 m/s, 0° | 0 W/m² | - |
| 1836274545 | 16.67° C | - | - | 0 mm | 2.24 m/s, 0° | 0 W/m² | - |
| 1836274090 | 17.22° C | - | - | 0 mm | 1.79 m/s, 0° | 0 W/m² | - |
| 1778066716 | 2.78° C | 80% | 1019.5 hPa | 0 mm | 1.79 m/s, 180° | 0 W/m² | - |
| 1778066116 | 3.89° C | 79% | 1019.8 hPa | 0 mm | 0.89 m/s, 225° | 0 W/m² | - |
| 1778065516 | 3.89° C | 82% | 1019.3 hPa | 0 mm | 0.89 m/s, 225° | 0 W/m² | - |
| 1778064916 | 3.33° C | 82% | 1019.3 hPa | 0 mm | 2.24 m/s, 203° | 0 W/m² | - |
| 1778064316 | 2.78° C | 81% | 1019.6 hPa | 0 mm | 1.79 m/s, 180° | 0 W/m² | - |
| 1778063715 | 2.78° C | 82% | 1019 hPa | 0 mm | 0.89 m/s, 180° | 0 W/m² | - |
| 1778063116 | 2.78° C | 80% | 1018.3 hPa | 0 mm | 0.89 m/s, 113° | 0 W/m² | - |
| 1778062518 | 3.89° C | 79% | 1018.6 hPa | 0 mm | 0.89 m/s, 113° | 0 W/m² | - |
| 1778061315 | 5° C | 78% | 1018.8 hPa | 0 mm | 0.45 m/s, 270° | 0 W/m² | - |
| 1778060715 | 5° C | 79% | 1018.8 hPa | 0 mm | 1.34 m/s, 270° | 0 W/m² | - |
| 1778060115 | 5° C | 80% | 1018.7 hPa | 0 mm | 1.34 m/s, 270° | 0 W/m² | - |
| 1778059515 | 5° C | 80% | 1018.7 hPa | 0 mm | 1.34 m/s, 270° | 0 W/m² | - |
| 1778058915 | 5.56° C | 80% | 1019 hPa | 0 mm | 0.45 m/s, 315° | 0 W/m² | - |
| 1778058315 | 5° C | 79% | 1018.8 hPa | 0 mm | 0.89 m/s, 225° | 0 W/m² | - |
| 1778057717 | 5.56° C | 78% | 1018.6 hPa | 0 mm | 0.45 m/s, 225° | 0 W/m² | - |
| 1778056517 | 6.11° C | 76% | 1018.2 hPa | 0 mm | 0.89 m/s, 225° | 0 W/m² | - |
| 1778055917 | 6.11° C | 78% | 1017.9 hPa | 0 mm | 1.34 m/s, 135° | 0 W/m² | - |
| 1778055317 | 6.11° C | 78% | 1018.2 hPa | 0 mm | 0.89 m/s, 135° | 0 W/m² | - |
| 1778054717 | 6.11° C | 78% | 1018.8 hPa | 0 mm | 1.34 m/s, 135° | 0 W/m² | - |
| 1778054117 | 6.11° C | 78% | 1018.4 hPa | 0 mm | 1.79 m/s, 158° | 0 W/m² | - |
| 1778053517 | 6.11° C | 78% | 1018.4 hPa | 0 mm | 1.79 m/s, 158° | 0 W/m² | - |
| 1778052917 | 6.11° C | 77% | 1018 hPa | 0 mm | 1.34 m/s, 203° | 0 W/m² | - |
* Rain latest hour (hover to see other rain measurements)
** Current wind speed in m/s (hover to see current wind gust speed)